Time;durP1;ratioP1;P1;durP2;ratioP2;P2;SDS_P1;SDS_P2;PMS_P1;PMS_P2;Temp;Humidity;BMP_temperature;BMP_pressure;BME280_temperature;BME280_humidity;BME280_pressure;Samples;Min_cycle;Max_cycle;Signal;HPM_P1;HPM_P2
2021/01/11 00:00:32;;;;;;;11.33;6.40;;;;;;;-1.22;76.35;100251.01;1775236;78;21231;-56
2021/01/11 00:02:59;;;;;;;13.43;7.10;;;;;;;-1.22;76.29;100247.94;1804889;78;21163;-56
2021/01/11 00:05:27;;;;;;;13.63;6.87;;;;;;;-1.23;76.18;100242.63;1780064;79;21063;-56
2021/01/11 00:07:55;;;;;;;10.37;5.70;;;;;;;-1.25;76.03;100228.52;1782851;78;21190;-56
2021/01/11 00:10:23;;;;;;;12.67;5.40;;;;;;;-1.28;75.88;100227.20;1780711;79;21268;-55
2021/01/11 00:12:50;;;;;;;16.83;8.10;;;;;;;-1.33;75.88;100230.23;1809221;78;21506;-55
2021/01/11 00:15:18;;;;;;;14.83;7.03;;;;;;;-1.36;75.92;100235.52;1804340;78;21159;-56
2021/01/11 00:17:45;;;;;;;11.97;6.47;;;;;;;-1.37;75.92;100246.95;1783317;78;21229;-55
2021/01/11 00:20:13;;;;;;;15.50;7.23;;;;;;;-1.38;75.92;100244.73;1763325;79;21835;-56
2021/01/11 00:22:43;;;;;;;11.67;6.27;;;;;;;-1.39;75.88;100242.97;1779505;78;22118;-56
2021/01/11 00:25:11;;;;;;;12.13;6.60;;;;;;;-1.40;75.74;100244.27;1781819;79;21616;-56
2021/01/11 00:27:38;;;;;;;13.57;7.50;;;;;;;-1.44;75.73;100253.02;1782208;79;21178;-56
2021/01/11 00:30:06;;;;;;;11.77;6.13;;;;;;;-1.46;75.75;100261.39;1780500;79;21162;-57
2021/01/11 00:35:16;;;;;;;13.70;7.30;;;;;;;-1.46;75.68;100265.36;1871301;75;26910;-58
2021/01/11 00:37:43;;;;;;;12.13;7.00;;;;;;;-1.54;75.63;100260.91;1841931;76;21168;-58
2021/01/11 00:40:10;;;;;;;21.00;9.43;;;;;;;-1.55;75.49;100258.23;1839167;76;21657;-58
2021/01/11 00:42:38;;;;;;;13.73;8.37;;;;;;;-1.59;75.39;100262.59;1818919;76;21380;-57
2021/01/11 00:45:08;;;;;;;17.13;7.63;;;;;;;-1.63;75.42;100257.30;1812685;77;20989;-58
2021/01/11 00:47:39;;;;;;;19.63;8.53;;;;;;;-1.67;75.24;100259.01;1813291;77;21410;-57
2021/01/11 00:50:09;;;;;;;13.57;7.60;;;;;;;-1.72;75.24;100255.89;1815046;77;21411;-58
2021/01/11 00:52:36;;;;;;;18.27;9.20;;;;;;;-1.79;75.34;100255.39;1812917;77;21379;-58
2021/01/11 00:55:24;;;;;;;17.50;9.60;;;;;;;-1.82;75.37;100263.27;1747142;80;21427;-59
2021/01/11 00:57:53;;;;;;;17.60;9.90;;;;;;;-1.83;75.33;100259.73;1747309;79;21240;-58
2021/01/11 01:00:22;;;;;;;20.90;10.03;;;;;;;-1.86;75.31;100261.45;1782380;78;21688;-57
2021/01/11 01:02:51;;;;;;;23.93;12.33;;;;;;;-1.88;75.23;100260.14;1780696;78;21111;-58
2021/01/11 01:05:19;;;;;;;18.13;10.33;;;;;;;-1.92;75.17;100264.49;1781786;78;21862;-58
2021/01/11 01:07:46;;;;;;;16.30;9.37;;;;;;;-1.96;75.19;100267.10;1782643;78;21827;-58
2021/01/11 01:10:14;;;;;;;18.63;10.87;;;;;;;-1.98;75.17;100259.16;1781361;78;21182;-59
2021/01/11 01:12:41;;;;;;;17.00;9.53;;;;;;;-1.99;75.13;100260.46;1750600;79;21245;-59
2021/01/11 01:15:10;;;;;;;20.17;10.30;;;;;;;-2.03;75.03;100260.85;1782346;78;21221;-58
2021/01/11 01:17:39;;;;;;;23.20;11.80;;;;;;;-2.06;74.98;100258.64;1784191;78;22293;-58
2021/01/11 01:20:17;;;;;;;27.10;13.10;;;;;;;-2.06;74.77;100261.28;1748826;80;21758;-59
2021/01/11 01:22:45;;;;;;;26.70;12.43;;;;;;;-2.11;74.66;100260.32;1735082;80;21167;-58
2021/01/11 01:25:14;;;;;;;33.20;15.33;;;;;;;-2.15;74.72;100262.49;1785034;78;21502;-58
2021/01/11 01:27:41;;;;;;;21.47;11.63;;;;;;;-2.18;74.76;100278.27;1745888;80;21136;-58
2021/01/11 01:30:10;;;;;;;24.93;13.37;;;;;;;-2.23;74.75;100286.58;1783478;78;22673;-58
2021/01/11 01:32:38;;;;;;;37.30;16.77;;;;;;;-2.30;74.81;100275.08;1778970;78;21138;-59
2021/01/11 01:35:08;;;;;;;40.80;18.50;;;;;;;-2.34;74.97;100276.78;1778112;78;21110;-58
2021/01/11 01:37:36;;;;;;;45.53;20.83;;;;;;;-2.37;75.14;100272.78;1779704;78;21114;-59
2021/01/11 01:40:05;;;;;;;43.07;22.30;;;;;;;-2.37;75.35;100273.22;1777954;78;21608;-60
2021/01/11 01:42:32;;;;;;;47.27;21.50;;;;;;;-2.40;75.51;100280.67;1780169;78;22274;-57
2021/01/11 01:44:59;;;;;;;47.87;21.63;;;;;;;-2.39;75.66;100287.72;1783446;78;21123;-58
2021/01/11 01:47:27;;;;;;;46.07;21.43;;;;;;;-2.38;75.67;100288.58;1777852;78;21620;-59
2021/01/11 01:49:54;;;;;;;42.50;20.53;;;;;;;-2.37;75.63;100279.38;1778167;78;21083;-58
2021/01/11 01:52:22;;;;;;;40.47;19.63;;;;;;;-2.36;75.61;100282.47;1774617;78;21478;-57
2021/01/11 01:54:50;;;;;;;44.23;20.90;;;;;;;-2.35;75.62;100285.56;1775341;78;21270;-58
2021/01/11 01:57:18;;;;;;;42.77;20.10;;;;;;;-2.33;75.62;100290.86;1775559;78;21105;-57
2021/01/11 01:59:48;;;;;;;45.67;19.93;;;;;;;-2.32;75.51;100293.52;1773436;78;21561;-57
2021/01/11 02:02:15;;;;;;;38.83;18.13;;;;;;;-2.31;75.37;100303.63;1780145;78;21136;-58
2021/01/11 02:04:42;;;;;;;42.67;20.93;;;;;;;-2.32;75.30;100308.45;1754438;78;21078;-58
2021/01/11 02:07:15;;;;;;;44.77;19.63;;;;;;;-2.33;75.07;100306.67;1775645;78;21687;-57
2021/01/11 02:10:12;;;;;;;41.80;20.87;;;;;;;-2.34;74.79;100300.95;1777845;78;21122;-57
2021/01/11 02:13:15;;;;;;;44.23;18.47;;;;;;;-2.38;74.88;100300.01;1775533;78;21102;-57
2021/01/11 02:16:10;;;;;;;34.33;18.30;;;;;;;-2.38;74.85;100303.08;1776221;78;21190;-59
2021/01/11 02:18:44;;;;;;;;;;;;;;;-2.40;74.82;100307.05;1776552;78;21405;-59
2021/01/11 02:21:53;;;;;;;37.97;17.77;;;;;;;-2.41;74.82;100298.67;1778392;78;20848;-59
2021/01/11 02:24:53;;;;;;;32.30;15.97;;;;;;;-2.43;74.78;100281.95;1722877;81;21158;-58
2021/01/11 02:27:49;;;;;;;46.83;19.13;;;;;;;-2.44;75.09;100277.53;1724738;81;21137;-58
2021/01/11 02:30:31;;;;;;;46.30;17.83;;;;;;;-2.42;75.22;100277.56;1722910;81;21110;-60
2021/01/11 02:33:12;;;;;;;44.07;18.70;;;;;;;-2.42;75.33;100275.81;1705678;82;21692;-57
2021/01/11 02:36:00;;;;;;;39.07;16.73;;;;;;;-2.43;75.48;100270.08;1701292;82;21676;-57
2021/01/11 02:38:27;;;;;;;33.00;14.43;;;;;;;-2.42;75.59;100267.02;1702983;82;21185;-57
2021/01/11 02:40:54;;;;;;;33.50;17.17;;;;;;;-2.38;75.80;100263.53;1730946;81;21255;-59
2021/01/11 02:43:21;;;;;;;29.80;16.23;;;;;;;-2.34;75.95;100251.73;1693077;82;21712;-57
2021/01/11 02:45:49;;;;;;;27.80;13.37;;;;;;;-2.26;76.07;100249.61;1699320;82;21229;-60
2021/01/11 02:48:53;;;;;;;28.57;14.60;;;;;;;-2.22;76.14;100243.52;1698737;82;21612;-60
2021/01/11 02:51:43;;;;;;;36.73;15.10;;;;;;;-2.18;76.22;100236.08;1698283;82;21801;-58
2021/01/11 02:54:39;;;;;;;28.53;14.67;;;;;;;-2.19;76.13;100229.03;1697446;83;21253;-58
2021/01/11 02:57:29;;;;;;;24.90;14.05;;;;;;;-2.23;76.32;100229.45;1676078;83;26041;-56
2021/01/11 02:59:59;;;;;;;30.30;14.27;;;;;;;-2.25;76.67;100235.56;1699516;82;21187;-59
2021/01/11 03:02:28;;;;;;;24.27;13.43;;;;;;;-2.22;76.88;100228.58;1699681;82;21201;-56
2021/01/11 03:04:55;;;;;;;29.47;15.20;;;;;;;-2.16;76.98;100237.87;1671558;82;21185;-59
2021/01/11 03:07:22;;;;;;;25.13;12.77;;;;;;;-2.11;77.01;100233.52;1695486;82;21481;-58
2021/01/11 03:09:49;;;;;;;26.13;14.67;;;;;;;-2.08;77.04;100238.83;1697182;82;21226;-57
2021/01/11 03:12:17;;;;;;;36.00;16.47;;;;;;;-2.03;77.11;100248.09;1722254;81;21435;-58
2021/01/11 03:14:44;;;;;;;28.40;14.67;;;;;;;-1.98;77.13;100251.69;1731202;81;21190;-56
2021/01/11 03:17:11;;;;;;;31.43;15.93;;;;;;;-1.91;77.12;100253.51;1700101;82;21213;-58
2021/01/11 03:19:40;;;;;;;34.93;16.63;;;;;;;-1.87;77.09;100255.29;1693852;83;21254;-57
2021/01/11 03:22:07;;;;;;;29.67;15.93;;;;;;;-1.84;77.04;100260.61;1730416;81;22385;-60
2021/01/11 03:24:34;;;;;;;30.60;15.00;;;;;;;-1.81;77.05;100263.29;1724938;81;22274;-58
2021/01/11 03:27:01;;;;;;;27.97;15.03;;;;;;;-1.77;77.09;100269.02;1725917;81;23681;-56
2021/01/11 03:29:29;;;;;;;32.13;14.57;;;;;;;-1.74;77.06;100263.79;1723524;81;21192;-58
2021/01/11 03:31:56;;;;;;;33.20;16.37;;;;;;;-1.71;76.96;100262.51;1724464;81;21174;-59
2021/01/11 03:34:23;;;;;;;26.40;14.27;;;;;;;-1.69;76.99;100258.10;1723241;81;21227;-58
2021/01/11 03:36:50;;;;;;;28.03;14.97;;;;;;;-1.65;76.97;100259.91;1724139;81;21198;-58
2021/01/11 03:39:18;;;;;;;28.77;13.93;;;;;;;-1.61;76.99;100260.80;1687711;83;21652;-57
2021/01/11 03:41:48;;;;;;;27.10;14.27;;;;;;;-1.58;76.95;100265.69;1725590;81;21205;-58
2021/01/11 03:44:16;;;;;;;26.87;14.03;;;;;;;-1.54;76.94;100267.50;1696815;83;21759;-59
2021/01/11 03:46:43;;;;;;;22.40;12.43;;;;;;;-1.51;76.89;100267.94;1698593;82;21155;-58
2021/01/11 03:49:10;;;;;;;20.00;11.63;;;;;;;-1.49;76.88;100270.16;1683536;83;21705;-58
2021/01/11 03:51:38;;;;;;;26.30;13.70;;;;;;;-1.46;76.91;100279.88;1725249;81;21214;-58
2021/01/11 03:54:05;;;;;;;22.47;11.90;;;;;;;-1.43;76.91;100273.28;1722248;81;21223;-55
2021/01/11 03:56:32;;;;;;;22.20;12.20;;;;;;;-1.40;76.87;100274.64;1724555;81;21159;-58
2021/01/11 03:59:00;;;;;;;22.70;11.70;;;;;;;-1.39;76.88;100274.66;1724969;81;21232;-56
2021/01/11 04:01:27;;;;;;;19.17;11.80;;;;;;;-1.38;76.87;100279.06;1722621;81;22397;-59
2021/01/11 04:03:56;;;;;;;20.77;12.23;;;;;;;-1.37;76.86;100278.63;1721747;81;22236;-58
2021/01/11 04:06:23;;;;;;;18.97;11.20;;;;;;;-1.36;76.84;100277.30;1684780;83;21229;-58
2021/01/11 04:08:50;;;;;;;19.60;11.53;;;;;;;-1.35;76.89;100277.75;1723510;81;21188;-57
2021/01/11 04:11:20;;;;;;;21.67;13.03;;;;;;;-1.32;76.93;100280.42;1722837;81;21379;-56
2021/01/11 04:13:48;;;;;;;22.40;12.63;;;;;;;-1.29;76.91;100276.94;1726147;81;21209;-58
2021/01/11 04:16:16;;;;;;;20.83;12.17;;;;;;;-1.30;76.86;100285.30;1725586;81;21399;-57
2021/01/11 04:18:43;;;;;;;18.00;11.23;;;;;;;-1.30;76.95;100289.25;1725943;81;21227;-56
2021/01/11 04:21:13;;;;;;;20.33;12.23;;;;;;;-1.28;76.96;100293.23;1725588;81;21189;-58
2021/01/11 04:23:40;;;;;;;19.33;11.53;;;;;;;-1.28;77.00;100298.08;1735274;81;21198;-57
2021/01/11 04:26:08;;;;;;;20.60;12.57;;;;;;;-1.28;77.00;100297.20;1675018;83;21210;-56
2021/01/11 04:28:36;;;;;;;20.53;11.63;;;;;;;-1.29;76.98;100288.82;1743661;81;21531;-58
2021/01/11 04:31:03;;;;;;;22.00;11.90;;;;;;;-1.29;77.12;100290.14;1742347;81;21182;-56
2021/01/11 04:33:31;;;;;;;22.33;11.27;;;;;;;-1.29;77.13;100281.78;1703101;82;21158;-57
2021/01/11 04:35:59;;;;;;;21.43;11.90;;;;;;;-1.27;77.19;100285.30;1669963;84;21525;-58
2021/01/11 04:38:26;;;;;;;18.83;10.93;;;;;;;-1.24;77.19;100285.77;1742192;81;21658;-58
2021/01/11 04:41:03;;;;;;;19.10;11.13;;;;;;;-1.21;77.20;100286.69;1675492;83;21525;-57
2021/01/11 04:43:35;;;;;;;18.53;11.63;;;;;;;-1.19;77.21;100285.34;1671617;84;21191;-57
2021/01/11 04:46:03;;;;;;;23.10;13.00;;;;;;;-1.17;77.25;100288.46;1745242;81;21227;-56
2021/01/11 04:48:32;;;;;;;22.20;13.03;;;;;;;-1.12;77.19;100288.95;1741417;81;21241;-58
2021/01/11 04:51:01;;;;;;;23.87;13.23;;;;;;;-1.12;77.16;100275.73;1742742;81;21111;-55
2021/01/11 04:53:28;;;;;;;25.47;11.97;;;;;;;-1.13;77.15;100284.53;1741973;81;22305;-55
2021/01/11 04:55:57;;;;;;;21.80;11.57;;;;;;;-1.13;77.24;100280.56;1744282;81;21127;-58
2021/01/11 04:58:25;;;;;;;21.77;11.97;;;;;;;-1.12;77.19;100275.30;1743360;81;21123;-58
2021/01/11 05:00:52;;;;;;;23.47;14.00;;;;;;;-1.12;77.24;100285.87;1741123;81;21154;-59
2021/01/11 05:03:19;;;;;;;20.53;11.77;;;;;;;-1.13;77.26;100285.42;1697373;81;21119;-56
2021/01/11 05:05:47;;;;;;;20.07;11.57;;;;;;;-1.11;77.28;100288.08;1744575;81;21387;-58
2021/01/11 05:08:14;;;;;;;17.37;11.73;;;;;;;-1.11;77.28;100286.75;1743259;81;21147;-58
2021/01/11 05:10:42;;;;;;;17.03;11.53;;;;;;;-1.09;77.30;100284.98;1673699;83;21229;-56
2021/01/11 05:13:11;;;;;;;19.80;11.90;;;;;;;-1.07;77.31;100280.60;1662590;84;21225;-56
2021/01/11 05:15:41;;;;;;;18.83;11.80;;;;;;;-1.05;77.34;100278.86;1702156;82;21511;-59
2021/01/11 05:18:20;;;;;;;20.13;13.03;;;;;;;-1.03;77.38;100283.73;1701716;82;22142;-57
2021/01/11 05:20:47;;;;;;;18.13;11.27;;;;;;;-0.99;77.34;100282.86;1701956;82;21146;-56
2021/01/11 05:23:15;;;;;;;16.93;10.83;;;;;;;-1.00;77.27;100285.05;1743201;81;21157;-57
2021/01/11 05:25:44;;;;;;;17.60;11.27;;;;;;;-1.01;77.31;100280.63;1742928;81;21130;-56
2021/01/11 05:28:16;;;;;;;20.33;11.70;;;;;;;-1.01;77.30;100282.84;1693898;82;21117;-59
2021/01/11 05:30:49;;;;;;;21.90;11.57;;;;;;;-1.00;77.37;100283.30;1736826;81;21182;-56
2021/01/11 05:33:23;;;;;;;18.33;11.57;;;;;;;-0.99;77.34;100286.38;1737962;81;21452;-59
2021/01/11 05:36:06;;;;;;;18.73;10.90;;;;;;;-1.00;77.34;100289.90;1696747;82;21198;-57
2021/01/11 05:38:37;;;;;;;17.70;10.80;;;;;;;-1.00;77.42;100291.66;1731900;81;21205;-57
2021/01/11 05:41:20;;;;;;;18.20;11.43;;;;;;;-0.99;77.46;100296.95;1737957;81;21195;-58
2021/01/11 05:44:10;;;;;;;19.63;11.30;;;;;;;-0.97;77.47;100294.33;1721560;81;21278;-55
2021/01/11 05:46:38;;;;;;;17.63;11.37;;;;;;;-0.95;77.47;100296.55;1709269;81;21765;-58
2021/01/11 05:49:07;;;;;;;18.47;11.20;;;;;;;-0.94;77.49;100291.28;1735163;81;21206;-58
2021/01/11 05:51:36;;;;;;;18.40;11.33;;;;;;;-0.92;77.47;100288.63;1732940;81;21230;-58
2021/01/11 05:54:06;;;;;;;15.63;9.37;;;;;;;-0.91;77.48;100286.00;1737041;81;21890;-60
2021/01/11 05:57:12;;;;;;;15.97;10.00;;;;;;;-0.89;77.50;100288.22;1736101;81;21205;-59
2021/01/11 05:59:39;;;;;;;17.60;10.68;;;;;;;-0.88;77.49;100291.31;1638385;83;28604;-62
2021/01/11 06:02:07;;;;;;;15.97;9.80;;;;;;;-0.86;77.48;100297.50;1660937;84;21344;-63
2021/01/11 06:04:34;;;;;;;14.13;9.03;;;;;;;-0.85;77.52;100300.56;1670540;83;22326;-62
2021/01/11 06:07:02;;;;;;;15.40;9.43;;;;;;;-0.83;77.52;100296.17;1673127;83;21106;-62
2021/01/11 06:09:29;;;;;;;18.40;10.83;;;;;;;-0.83;77.51;100298.82;1671604;83;21234;-64
2021/01/11 06:11:56;;;;;;;15.70;9.80;;;;;;;-0.79;77.48;100305.02;1643282;85;21240;-64
2021/01/11 06:14:24;;;;;;;20.83;11.80;;;;;;;-0.79;77.47;100304.59;1655219;84;21487;-61
2021/01/11 06:16:51;;;;;;;17.70;11.67;;;;;;;-0.79;77.45;100307.23;1670497;83;21198;-62
2021/01/11 06:19:18;;;;;;;18.87;12.87;;;;;;;-0.77;77.41;100309.89;1654752;84;21222;-60
2021/01/11 06:21:51;;;;;;;21.63;12.87;;;;;;;-0.77;77.38;100317.82;1666969;84;23089;-62
2021/01/11 06:24:20;;;;;;;19.67;12.43;;;;;;;-0.75;77.38;100314.72;1655906;84;21226;-63
2021/01/11 06:26:48;;;;;;;15.90;10.03;;;;;;;-0.74;77.29;100318.25;1669057;84;21171;-63
2021/01/11 06:29:31;;;;;;;16.53;11.10;;;;;;;-0.78;77.35;100316.94;1659312;84;21131;-62
2021/01/11 06:32:21;;;;;;;17.53;9.47;;;;;;;-0.77;77.42;100317.35;1643074;85;21239;-62
2021/01/11 06:34:49;;;;;;;16.77;10.30;;;;;;;-0.74;77.37;100312.97;1639956;85;22146;-61
2021/01/11 06:37:21;;;;;;;16.50;9.13;;;;;;;-0.74;77.30;100319.58;1656619;84;21238;-63
2021/01/11 06:39:48;;;;;;;17.20;10.57;;;;;;;-0.73;77.26;100316.06;1655828;84;21940;-64
2021/01/11 06:42:17;;;;;;;20.27;10.10;;;;;;;-0.72;77.23;100318.72;1684953;82;21991;-61
2021/01/11 06:44:50;;;;;;;22.27;12.03;;;;;;;-0.73;77.30;100314.30;1697849;82;21572;-61
2021/01/11 06:47:28;;;;;;;16.00;10.73;;;;;;;-0.74;77.33;100309.89;1691522;82;21514;-59
2021/01/11 06:50:08;;;;;;;20.00;12.40;;;;;;;-0.73;77.32;100309.02;1682450;83;21196;-63
2021/01/11 06:52:37;;;;;;;23.57;12.73;;;;;;;-0.72;77.33;100308.58;1666124;84;21016;-61
2021/01/11 06:55:15;;;;;;;21.83;12.47;;;;;;;-0.69;77.23;100309.94;1669152;84;21162;-62
2021/01/11 06:57:48;;;;;;;17.57;11.60;;;;;;;-0.69;77.21;100308.17;1684135;83;21100;-61
2021/01/11 07:00:17;;;;;;;21.13;12.43;;;;;;;-0.68;77.24;100307.27;1696689;82;21862;-60
2021/01/11 07:02:45;;;;;;;20.10;12.93;;;;;;;-0.66;77.26;100305.53;1691933;82;21477;-59
2021/01/11 07:05:37;;;;;;;20.83;12.20;;;;;;;-0.62;77.28;100311.30;1682356;83;21218;-60
2021/01/11 07:08:07;;;;;;;21.33;12.83;;;;;;;-0.62;77.27;100306.00;1695055;82;21209;-63
2021/01/11 07:10:39;;;;;;;21.30;13.07;;;;;;;-0.60;77.31;100305.59;1696095;82;21183;-60
2021/01/11 07:13:24;;;;;;;18.53;12.07;;;;;;;-0.59;77.29;100301.15;1697491;82;21883;-60
2021/01/11 07:15:57;;;;;;;18.92;11.50;;;;;;;-0.58;77.33;100297.63;1683424;83;21279;-63
2021/01/11 07:18:45;;;;;;;18.17;11.60;;;;;;;-0.56;77.31;100299.86;1697990;82;21116;-61
2021/01/11 07:21:16;;;;;;;16.60;10.70;;;;;;;-0.56;77.30;100299.86;1681205;83;21166;-62
2021/01/11 07:23:44;;;;;;;19.53;11.43;;;;;;;-0.55;77.29;100301.63;1695974;82;21110;-62
2021/01/11 07:26:19;;;;;;;15.27;9.40;;;;;;;-0.54;77.26;100299.00;1695362;82;21463;-62
2021/01/11 07:29:08;;;;;;;10.57;7.33;;;;;;;-0.53;77.23;100302.53;1700621;82;21131;-61
2021/01/11 07:31:39;;;;;;;13.07;8.73;;;;;;;-0.53;77.18;100299.88;1699084;82;21532;-60
2021/01/11 07:34:12;;;;;;;12.10;7.97;;;;;;;-0.54;77.11;100301.64;1702734;82;21111;-63
2021/01/11 07:36:46;;;;;;;10.73;6.90;;;;;;;-0.53;77.06;100303.41;1688218;83;21105;-63
2021/01/11 07:39:28;;;;;;;13.00;6.87;;;;;;;-0.51;77.08;100303.42;1667226;84;21408;-62
2021/01/11 07:42:03;;;;;;;7.45;5.50;;;;;;;-0.50;77.16;100305.16;1698960;82;21119;-60
2021/01/11 07:44:40;;;;;;;10.00;6.07;;;;;;;-0.49;77.10;100313.11;1698909;82;21131;-63
2021/01/11 07:47:13;;;;;;;27.90;13.10;;;;;;;-0.46;77.06;100309.61;1698950;82;21084;-60
2021/01/11 07:49:51;;;;;;;33.63;15.97;;;;;;;-0.46;76.97;100310.50;1695714;82;21176;-61
2021/01/11 07:55:00;;;;;;;33.13;27.40;;;;;;;-0.36;76.85;100306.14;1865490;75;26749;-55
2021/01/11 07:57:28;;;;;;;21.10;13.03;;;;;;;-0.39;76.81;100314.93;1843582;76;21971;-57
2021/01/11 08:00:10;;;;;;;23.23;17.47;;;;;;;-0.37;76.77;100321.56;1845388;76;20970;-57
2021/01/11 08:02:46;;;;;;;21.10;13.80;;;;;;;-0.34;76.67;100319.38;1840854;76;21059;-57
2021/01/11 08:05:24;;;;;;;14.30;10.07;;;;;;;-0.35;76.76;100321.13;1841737;77;20965;-58
2021/01/11 08:08:07;;;;;;;14.80;8.37;;;;;;;-0.34;76.69;100321.55;1850763;76;20996;-58
2021/01/11 08:10:35;;;;;;;16.17;9.70;;;;;;;-0.34;76.61;100325.98;1843438;76;21168;-58
2021/01/11 08:13:06;;;;;;;18.67;13.93;;;;;;;-0.35;76.57;100318.48;1840826;76;21067;-58
2021/01/11 08:15:33;;;;;;;16.23;11.30;;;;;;;-0.34;76.58;100325.52;1838009;76;21166;-57
2021/01/11 08:18:04;;;;;;;17.20;11.17;;;;;;;-0.32;76.57;100332.14;1838780;76;21207;-57
2021/01/11 08:20:31;;;;;;;20.87;13.13;;;;;;;-0.32;76.59;100329.06;1840681;76;21132;-57
2021/01/11 08:23:11;;;;;;;20.23;11.70;;;;;;;-0.28;76.60;100332.63;1844613;76;21261;-57
2021/01/11 08:25:40;;;;;;;24.60;14.07;;;;;;;-0.29;76.56;100333.06;1847267;76;21437;-56
2021/01/11 08:28:09;;;;;;;22.10;13.60;;;;;;;-0.26;76.55;100339.70;1772853;78;21147;-57
2021/01/11 08:30:37;;;;;;;24.50;12.30;;;;;;;-0.23;76.35;100333.52;1811378;77;21522;-57
2021/01/11 08:33:08;;;;;;;24.73;13.13;;;;;;;-0.21;76.40;100344.55;1807359;78;21163;-57
2021/01/11 08:35:36;;;;;;;25.73;16.47;;;;;;;-0.18;76.38;100341.05;1809336;77;21103;-58
2021/01/11 08:38:05;;;;;;;24.97;15.30;;;;;;;-0.18;76.42;100343.70;1811822;77;22032;-58
2021/01/11 08:40:33;;;;;;;21.67;13.73;;;;;;;-0.17;76.51;100345.47;1808933;77;21627;-58
2021/01/11 08:43:12;;;;;;;20.27;11.87;;;;;;;-0.15;76.43;100348.98;1807053;77;21220;-58
2021/01/11 08:45:41;;;;;;;20.50;13.40;;;;;;;-0.15;76.32;100343.69;1804023;77;21179;-57
2021/01/11 08:48:14;;;;;;;20.57;12.63;;;;;;;-0.17;76.30;100341.03;1813731;78;21210;-58
2021/01/11 08:50:56;;;;;;;29.90;16.90;;;;;;;-0.17;76.36;100338.38;1771547;79;22073;-58
2021/01/11 08:53:36;;;;;;;30.23;18.10;;;;;;;-0.15;76.38;100341.92;1779952;78;21066;-58
2021/01/11 08:56:07;;;;;;;19.30;12.77;;;;;;;-0.13;76.38;100340.18;1787576;78;21222;-58
2021/01/11 08:58:37;;;;;;;20.23;13.97;;;;;;;-0.10;76.27;100330.94;1776523;80;21207;-58
2021/01/11 09:01:14;;;;;;;23.77;13.50;;;;;;;-0.10;76.15;100339.31;1785007;78;22554;-58
2021/01/11 09:03:58;;;;;;;22.50;11.33;;;;;;;-0.09;76.17;100336.69;1812441;78;21203;-56
2021/01/11 09:06:45;;;;;;;22.60;12.17;;;;;;;-0.09;75.93;100339.33;1813251;78;21194;-56
2021/01/11 09:09:16;;;;;;;19.97;11.40;;;;;;;-0.09;75.86;100336.69;1812048;78;21170;-57
2021/01/11 09:12:02;;;;;;;18.93;9.87;;;;;;;-0.04;75.76;100330.95;1829122;76;27129;-54
2021/01/11 09:14:31;;;;;;;18.27;10.63;;;;;;;-0.05;75.68;100333.59;1812203;77;21018;-56
2021/01/11 09:17:04;;;;;;;16.43;10.17;;;;;;;-0.04;75.68;100329.63;1815444;77;21549;-56
2021/01/11 09:19:34;;;;;;;18.27;10.00;;;;;;;-0.02;75.51;100327.88;1809903;77;21025;-57
2021/01/11 09:22:17;;;;;;;17.90;9.37;;;;;;;0.03;75.37;100330.97;1802581;77;21150;-56
2021/01/11 09:24:45;;;;;;;18.53;9.97;;;;;;;0.03;75.33;100327.88;1804645;77;21207;-58
2021/01/11 09:27:12;;;;;;;15.33;10.27;;;;;;;0.05;75.28;100333.19;1809931;77;21482;-57
2021/01/11 09:29:40;;;;;;;21.27;10.30;;;;;;;0.05;75.14;100323.92;1809733;77;21259;-55
2021/01/11 09:32:07;;;;;;;20.13;10.87;;;;;;;0.05;74.95;100323.48;1807121;77;21110;-55
2021/01/11 09:34:34;;;;;;;20.73;11.90;;;;;;;0.05;74.76;100318.63;1811887;77;20975;-55
2021/01/11 09:37:03;;;;;;;21.67;11.63;;;;;;;0.05;74.78;100322.59;1809843;77;21123;-57
2021/01/11 09:39:30;;;;;;;22.00;13.40;;;;;;;0.04;74.71;100321.71;1808037;77;21183;-57
2021/01/11 09:41:58;;;;;;;25.40;14.00;;;;;;;0.06;74.70;100329.23;1806734;77;22215;-56
2021/01/11 09:44:25;;;;;;;32.30;14.37;;;;;;;0.05;74.67;100322.16;1809951;77;21178;-57
2021/01/11 09:46:55;;;;;;;24.20;13.43;;;;;;;0.06;74.69;100317.75;1808104;77;21159;-56
2021/01/11 09:49:23;;;;;;;25.63;14.83;;;;;;;0.06;74.49;100312.46;1806125;77;21099;-56
2021/01/11 09:51:51;;;;;;;26.20;12.20;;;;;;;0.06;74.49;100313.34;1812093;77;21107;-56
2021/01/11 09:54:18;;;;;;;28.93;14.73;;;;;;;0.07;74.48;100315.12;1810366;77;21467;-57
2021/01/11 09:56:45;;;;;;;26.63;15.50;;;;;;;0.06;74.49;100313.34;1807254;77;21437;-57
2021/01/11 09:59:13;;;;;;;30.50;14.80;;;;;;;0.06;74.41;100313.34;1805569;77;21159;-57
2021/01/11 10:01:46;;;;;;;28.37;15.50;;;;;;;0.07;74.41;100312.91;1805017;77;21198;-57
2021/01/11 10:04:20;;;;;;;27.80;15.57;;;;;;;0.06;74.47;100310.70;1810027;77;21119;-56
2021/01/11 10:06:51;;;;;;;24.03;13.50;;;;;;;0.08;74.46;100310.71;1810240;77;21562;-57
2021/01/11 10:09:22;;;;;;;28.40;14.27;;;;;;;0.10;74.46;100307.60;1808478;77;21988;-56
2021/01/11 10:11:52;;;;;;;25.17;14.10;;;;;;;0.12;74.39;100304.53;1810001;77;21123;-56
2021/01/11 10:14:20;;;;;;;25.40;14.37;;;;;;;0.12;74.32;100304.09;1813674;77;21105;-57
2021/01/11 10:16:47;;;;;;;25.63;15.23;;;;;;;0.15;74.33;100308.52;1808163;77;21330;-57
2021/01/11 10:19:21;;;;;;;23.93;13.40;;;;;;;0.15;74.32;100299.25;1809163;77;21372;-57
2021/01/11 10:21:48;;;;;;;23.97;14.13;;;;;;;0.15;74.28;100300.58;1806267;77;21130;-57
2021/01/11 10:24:16;;;;;;;27.43;13.07;;;;;;;0.18;74.26;100301.89;1812630;77;20984;-57
2021/01/11 10:26:48;;;;;;;26.30;15.43;;;;;;;0.17;74.27;100302.32;1806578;77;21166;-56
2021/01/11 10:29:16;;;;;;;27.77;14.90;;;;;;;0.19;74.25;100289.09;1807815;77;21115;-57
2021/01/11 10:31:47;;;;;;;28.43;14.33;;;;;;;0.20;74.33;100284.25;1806856;77;21289;-57
2021/01/11 10:34:16;;;;;;;29.67;15.37;;;;;;;0.23;74.31;100288.23;1808244;77;21115;-57
2021/01/11 10:36:49;;;;;;;22.33;13.77;;;;;;;0.26;74.24;100288.22;1809242;77;21171;-57
2021/01/11 10:39:23;;;;;;;20.83;12.97;;;;;;;0.26;74.19;100277.63;1807676;77;21111;-57
2021/01/11 10:41:54;;;;;;;19.90;11.88;;;;;;;0.30;74.08;100282.95;1808536;77;21099;-56
2021/01/11 10:44:22;;;;;;;17.73;11.00;;;;;;;0.32;74.02;100284.28;1809744;77;22052;-57
2021/01/11 10:46:51;;;;;;;19.37;12.13;;;;;;;0.33;73.99;100284.73;1807794;77;21580;-57
2021/01/11 10:49:19;;;;;;;20.13;11.33;;;;;;;0.34;73.95;100272.78;1810580;77;21138;-58
2021/01/11 10:51:48;;;;;;;23.37;12.70;;;;;;;0.35;73.89;100278.97;1807753;77;21111;-57
2021/01/11 10:54:15;;;;;;;20.27;11.67;;;;;;;0.35;73.83;100277.64;1808825;77;21155;-57
2021/01/11 10:56:43;;;;;;;21.70;13.63;;;;;;;0.37;73.95;100282.07;1807636;77;21275;-57
2021/01/11 10:59:10;;;;;;;33.63;21.37;;;;;;;0.43;73.92;100281.63;1805392;77;21099;-55
2021/01/11 11:01:38;;;;;;;27.93;17.23;;;;;;;0.49;73.86;100275.91;1810105;77;21113;-57
2021/01/11 11:04:06;;;;;;;21.93;12.97;;;;;;;0.55;73.75;100277.67;1804389;77;21171;-57
2021/01/11 11:06:33;;;;;;;22.53;13.20;;;;;;;0.59;73.66;100275.05;1808632;77;21167;-57
2021/01/11 11:09:00;;;;;;;19.63;13.20;;;;;;;0.62;73.54;100271.05;1810101;77;21379;-57
2021/01/11 11:11:27;;;;;;;18.80;12.27;;;;;;;0.65;73.48;100264.44;1807521;77;21909;-57
2021/01/11 11:13:54;;;;;;;20.77;12.30;;;;;;;0.68;73.36;100268.39;1806099;77;21178;-58
2021/01/11 11:16:22;;;;;;;18.70;11.70;;;;;;;0.70;73.27;100269.28;1810559;77;22561;-57
2021/01/11 11:18:49;;;;;;;18.90;12.10;;;;;;;0.68;73.14;100266.21;1806850;77;21178;-57
2021/01/11 11:21:16;;;;;;;20.37;11.97;;;;;;;0.68;73.17;100263.09;1809283;77;21328;-57
2021/01/11 11:23:43;;;;;;;21.17;14.37;;;;;;;0.69;73.10;100248.96;1808851;77;21170;-57
2021/01/11 11:26:10;;;;;;;21.30;14.60;;;;;;;0.69;72.99;100260.00;1810999;77;21121;-57
2021/01/11 11:28:38;;;;;;;18.43;14.00;;;;;;;0.68;73.01;100259.11;1807661;77;21156;-57
2021/01/11 11:31:05;;;;;;;20.00;12.63;;;;;;;0.67;72.98;100263.11;1807177;77;21163;-57
2021/01/11 11:33:36;;;;;;;17.30;10.67;;;;;;;0.66;72.96;100261.34;1805801;77;22770;-57
2021/01/11 11:36:04;;;;;;;18.93;10.70;;;;;;;0.61;72.85;100265.30;1811689;77;21147;-57